createdAt,value
2023-06-10T00:00:14.116Z,8.10
2023-06-10T00:02:40.948Z,8.60
2023-06-10T00:05:08.586Z,6.82
2023-06-10T00:07:35.505Z,6.47
2023-06-10T00:10:02.060Z,8.15
2023-06-10T00:12:28.597Z,6.70
2023-06-10T00:14:55.129Z,7.07
2023-06-10T00:17:22.989Z,9.50
2023-06-10T00:19:49.565Z,5.65
2023-06-10T00:22:16.246Z,9.23
2023-06-10T00:24:42.882Z,8.73
2023-06-10T00:27:09.472Z,7.13
2023-06-10T00:29:36.128Z,6.43
2023-06-10T00:32:03.250Z,7.00
2023-06-10T00:34:31.411Z,8.00
2023-06-10T00:36:57.967Z,12.32
2023-06-10T00:39:24.665Z,7.68
2023-06-10T00:41:51.190Z,8.57
2023-06-10T00:44:17.788Z,8.52
2023-06-10T00:46:44.730Z,9.40
2023-06-10T00:49:11.909Z,8.38
2023-06-10T00:51:40.343Z,9.30
2023-06-10T00:54:07.999Z,10.35
2023-06-10T00:56:34.817Z,9.85
2023-06-10T00:59:01.409Z,10.45
2023-06-10T01:01:28.028Z,8.77
2023-06-10T01:03:54.578Z,10.98
2023-06-10T01:06:35.245Z,12.20
2023-06-10T01:09:13.894Z,11.40
2023-06-10T01:11:47.650Z,11.05
2023-06-10T01:14:14.809Z,10.15
2023-06-10T01:16:41.375Z,9.48
2023-06-10T01:19:07.989Z,11.70
2023-06-10T01:21:38.581Z,13.05
2023-06-10T01:24:06.029Z,11.27
2023-06-10T01:26:35.227Z,11.52
2023-06-10T01:29:12.434Z,8.55
2023-06-10T01:31:43.967Z,8.50
2023-06-10T01:34:13.809Z,10.43
2023-06-10T01:36:45.448Z,10.02
2023-06-10T01:39:12.970Z,14.77
2023-06-10T01:41:40.898Z,10.00
2023-06-10T01:44:07.491Z,14.75
2023-06-10T01:46:34.054Z,11.65
2023-06-10T01:49:00.560Z,13.30
2023-06-10T01:51:27.149Z,13.23
2023-06-10T01:53:55.015Z,10.23
2023-06-10T01:56:21.560Z,12.02
2023-06-10T01:58:48.218Z,11.45
2023-06-10T02:01:15.494Z,12.38
2023-06-10T02:03:42.209Z,11.45
2023-06-10T02:06:08.869Z,9.88
2023-06-10T02:08:35.428Z,10.98
2023-06-10T02:11:03.295Z,12.65
2023-06-10T02:13:29.835Z,12.40
2023-06-10T02:15:56.505Z,12.82
2023-06-10T02:18:23.113Z,11.10
2023-06-10T02:20:50.045Z,16.05
2023-06-10T02:23:16.628Z,11.38
2023-06-10T02:25:43.215Z,12.27
2023-06-10T02:28:11.119Z,10.60
2023-06-10T02:30:40.280Z,11.10
2023-06-10T02:33:06.810Z,10.90
2023-06-10T02:35:33.371Z,12.20
2023-06-10T02:37:59.917Z,11.27
2023-06-10T02:40:26.421Z,12.82
2023-06-10T02:42:52.930Z,11.52
2023-06-10T02:45:20.844Z,12.90
2023-06-10T02:47:47.418Z,10.55
2023-06-10T02:50:13.978Z,8.55
2023-06-10T02:52:40.556Z,11.85
2023-06-10T02:55:07.857Z,13.75
2023-06-10T02:57:34.697Z,12.00
2023-06-10T03:00:01.262Z,10.00
2023-06-10T03:02:29.175Z,9.88
2023-06-10T03:04:56.116Z,10.60
2023-06-10T03:07:22.703Z,10.57
2023-06-10T03:09:49.265Z,10.35
2023-06-10T03:12:15.965Z,8.85
2023-06-10T03:14:42.579Z,13.02
2023-06-10T03:17:09.152Z,10.02
2023-06-10T03:19:37.084Z,10.88
2023-06-10T03:22:11.241Z,9.85
2023-06-10T03:24:38.197Z,13.13
2023-06-10T03:27:05.517Z,11.88
2023-06-10T03:29:32.081Z,12.48
2023-06-10T03:31:58.627Z,12.68
2023-06-10T03:34:25.209Z,10.45
2023-06-10T03:36:53.102Z,13.93
2023-06-10T03:39:19.653Z,11.32
2023-06-10T03:41:46.248Z,11.88
2023-06-10T03:44:12.949Z,9.98
2023-06-10T03:46:39.541Z,11.75
2023-06-10T03:49:06.136Z,13.07
2023-06-10T03:51:32.697Z,11.70
2023-06-10T03:54:00.618Z,12.13
2023-06-10T03:56:27.182Z,15.38
2023-06-10T03:58:53.806Z,13.15
2023-06-10T04:01:20.396Z,10.77
2023-06-10T04:03:46.912Z,13.45
2023-06-10T04:06:14.645Z,15.10
2023-06-10T04:08:41.224Z,11.35
2023-06-10T04:11:09.182Z,13.95
2023-06-10T04:13:35.775Z,12.48
2023-06-10T04:16:02.305Z,10.10
2023-06-10T04:18:28.838Z,11.43
2023-06-10T04:20:55.563Z,13.60
2023-06-10T04:23:22.210Z,11.35
2023-06-10T04:25:48.748Z,10.77
2023-06-10T04:28:16.743Z,12.48
2023-06-10T04:30:43.338Z,11.75
2023-06-10T04:33:09.938Z,12.57
2023-06-10T04:35:36.602Z,11.82
2023-06-10T04:38:03.142Z,13.30
2023-06-10T04:40:29.708Z,12.05
2023-06-10T04:42:56.363Z,13.07
2023-06-10T04:45:24.270Z,11.95
2023-06-10T04:47:50.912Z,13.73
2023-06-10T04:50:17.493Z,13.32
2023-06-10T04:52:44.037Z,14.13
2023-06-10T04:55:10.896Z,15.05
2023-06-10T04:57:37.672Z,14.57
2023-06-10T05:00:05.220Z,16.98
2023-06-10T05:02:33.153Z,14.73
2023-06-10T05:04:59.895Z,15.95
2023-06-10T05:07:26.525Z,16.15
2023-06-10T05:09:53.070Z,14.57
2023-06-10T05:12:19.579Z,15.27
2023-06-10T05:14:46.193Z,16.95
2023-06-10T05:17:12.758Z,20.55
2023-06-10T05:19:40.714Z,13.70
2023-06-10T05:22:07.412Z,14.80
2023-06-10T05:24:33.954Z,12.65
2023-06-10T05:27:00.864Z,15.23
2023-06-10T05:29:27.457Z,16.17
2023-06-10T05:31:54.025Z,14.32
2023-06-10T05:34:20.632Z,16.75
2023-06-10T05:36:48.557Z,15.45
2023-06-10T05:39:15.111Z,20.65
2023-06-10T05:41:41.675Z,19.48
2023-06-10T05:44:08.195Z,16.65
2023-06-10T05:46:35.171Z,16.70
2023-06-10T05:49:01.796Z,17.45
2023-06-10T05:51:28.388Z,14.77
2023-06-10T05:53:56.354Z,20.52
2023-06-10T05:56:22.980Z,15.82
2023-06-10T05:58:49.679Z,15.75
2023-06-10T06:01:16.497Z,15.77
2023-06-10T06:03:43.254Z,15.98
2023-06-10T06:06:09.988Z,13.90
2023-06-10T06:08:36.551Z,16.23
2023-06-10T06:11:04.502Z,15.48
2023-06-10T06:13:31.074Z,14.35
2023-06-10T06:15:57.662Z,20.15
2023-06-10T06:18:24.211Z,17.05
2023-06-10T06:20:50.847Z,18.15
2023-06-10T06:23:17.435Z,14.63
2023-06-10T06:25:43.970Z,16.15
2023-06-10T06:28:11.857Z,17.95
2023-06-10T06:30:38.444Z,14.52
2023-06-10T06:33:05.065Z,13.15
2023-06-10T06:35:32.032Z,14.57
2023-06-10T06:37:58.650Z,15.45
2023-06-10T06:40:25.376Z,14.00
2023-06-10T06:42:51.905Z,13.68
2023-06-10T06:45:19.831Z,17.02
2023-06-10T06:47:46.459Z,15.82
2023-06-10T06:50:13.056Z,13.52
2023-06-10T06:52:39.658Z,13.63
2023-06-10T06:55:07.272Z,15.05
2023-06-10T06:57:33.948Z,14.35
2023-06-10T07:00:00.548Z,12.20
2023-06-10T07:02:28.427Z,15.20
2023-06-10T07:04:54.975Z,12.95
2023-06-10T07:07:21.613Z,13.68
2023-06-10T07:09:48.169Z,12.77
2023-06-10T07:12:14.691Z,12.65
2023-06-10T07:14:41.256Z,13.65
2023-06-10T07:17:08.026Z,18.52
2023-06-10T07:19:35.960Z,11.77
2023-06-10T07:22:02.558Z,13.00
2023-06-10T07:24:29.133Z,12.25
2023-06-10T07:26:55.679Z,17.63
2023-06-10T07:29:22.215Z,12.38
2023-06-10T07:31:48.797Z,11.82
2023-06-10T07:34:15.315Z,12.98
2023-06-10T07:36:43.235Z,11.75
2023-06-10T07:39:09.777Z,30.73
2023-06-10T07:41:36.345Z,16.58
2023-06-10T07:44:03.690Z,12.30
2023-06-10T07:46:30.410Z,11.20
2023-06-10T07:48:56.962Z,8.93
2023-06-10T07:51:23.529Z,12.65
2023-06-10T07:53:51.465Z,11.45
2023-06-10T07:56:18.074Z,13.18
2023-06-10T07:58:44.693Z,11.02
2023-06-10T08:01:11.232Z,10.55
2023-06-10T08:03:37.836Z,12.80
2023-06-10T08:06:04.763Z,8.57
2023-06-10T08:08:31.273Z,10.52
2023-06-10T08:10:59.173Z,9.25
2023-06-10T08:13:25.731Z,8.90
2023-06-10T08:15:52.258Z,13.00
2023-06-10T08:18:18.791Z,9.57
2023-06-10T08:20:45.357Z,9.50
2023-06-10T08:23:11.895Z,9.52
2023-06-10T08:25:38.435Z,8.63
2023-06-10T08:28:06.480Z,9.05
2023-06-10T08:30:33.039Z,7.97
2023-06-10T08:33:00.573Z,7.80
2023-06-10T08:35:27.190Z,9.10
2023-06-10T08:37:53.788Z,10.07
2023-06-10T08:40:20.407Z,11.77
2023-06-10T08:42:53.585Z,6.90
2023-06-10T08:45:24.436Z,9.30
2023-06-10T08:47:51.846Z,16.13
2023-06-10T08:50:19.674Z,8.98
2023-06-10T08:52:49.396Z,9.30
2023-06-10T08:55:19.594Z,7.97
2023-06-10T08:57:46.706Z,11.68
2023-06-10T09:00:14.685Z,7.38
2023-06-10T09:02:44.007Z,8.68
2023-06-10T09:05:11.429Z,9.52
2023-06-10T09:07:38.573Z,10.00
2023-06-10T09:10:06.624Z,10.02
2023-06-10T09:12:35.257Z,9.95
2023-06-10T09:15:03.591Z,5.63
2023-06-10T09:17:30.857Z,7.82
2023-06-10T09:20:00.125Z,10.85
2023-06-10T09:22:26.671Z,9.50
2023-06-10T09:25:02.535Z,9.82
2023-06-10T09:27:31.166Z,8.95
2023-06-10T09:29:57.726Z,8.57
2023-06-10T09:32:25.114Z,7.93
2023-06-10T09:34:51.740Z,6.97
2023-06-10T09:37:22.552Z,7.32
2023-06-10T09:40:03.564Z,8.13
2023-06-10T09:42:33.539Z,6.63
2023-06-10T09:45:00.078Z,7.55
2023-06-10T09:47:26.651Z,7.68
2023-06-10T09:49:53.201Z,6.85
2023-06-10T09:52:24.090Z,8.15
2023-06-10T09:54:51.324Z,6.22
2023-06-10T09:57:18.679Z,6.03
2023-06-10T09:59:47.982Z,11.27
2023-06-10T10:02:15.893Z,7.72
2023-06-10T10:04:42.578Z,6.63
2023-06-10T10:07:09.659Z,7.65
2023-06-10T10:09:38.045Z,8.32
2023-06-10T10:12:09.961Z,6.63
2023-06-10T10:14:37.444Z,5.32
2023-06-10T10:17:08.487Z,6.95
2023-06-10T10:19:41.091Z,9.55
2023-06-10T10:22:11.657Z,6.28
2023-06-10T10:24:42.581Z,7.78
2023-06-10T10:27:18.416Z,6.85
2023-06-10T10:29:48.510Z,7.53
2023-06-10T10:32:17.198Z,6.25
2023-06-10T10:34:50.489Z,7.65
2023-06-10T10:37:18.509Z,8.07
2023-06-10T10:39:46.584Z,8.63
2023-06-10T10:42:14.117Z,7.43
2023-06-10T10:44:41.767Z,6.25
2023-06-10T10:47:10.035Z,9.30
2023-06-10T10:49:37.995Z,7.43
2023-06-10T10:52:05.519Z,6.07
2023-06-10T10:54:33.687Z,4.93
2023-06-10T10:57:18.327Z,6.88
2023-06-10T10:59:46.662Z,6.53
2023-06-10T11:02:17.304Z,6.60
2023-06-10T11:04:47.126Z,4.88
2023-06-10T11:07:14.434Z,5.22
2023-06-10T11:09:58.917Z,4.35
2023-06-10T11:12:27.147Z,6.47
2023-06-10T11:14:55.632Z,5.82
2023-06-10T11:17:22.418Z,4.75
2023-06-10T11:19:49.009Z,6.20
2023-06-10T11:22:18.173Z,5.28
2023-06-10T11:24:48.905Z,7.30
2023-06-10T11:27:16.649Z,7.43
2023-06-10T11:29:58.311Z,4.72
2023-06-10T11:32:30.076Z,7.68
2023-06-10T11:34:57.136Z,5.20
2023-06-10T11:37:23.728Z,4.22
2023-06-10T11:39:52.869Z,9.02
2023-06-10T11:42:20.177Z,6.47
2023-06-10T11:44:49.673Z,6.60
2023-06-10T11:47:17.708Z,6.05
2023-06-10T11:49:46.450Z,6.43
2023-06-10T11:52:14.628Z,7.35
2023-06-10T11:54:41.193Z,6.13
2023-06-10T11:57:07.785Z,7.20
2023-06-10T11:59:34.462Z,5.18
2023-06-10T12:02:01.064Z,7.65
2023-06-10T12:04:28.909Z,4.85
2023-06-10T12:06:56.300Z,7.40
2023-06-10T12:09:26.994Z,7.68
2023-06-10T12:11:57.840Z,5.40
2023-06-10T12:14:53.004Z,6.88
2023-06-10T12:17:19.737Z,7.40
2023-06-10T12:19:47.645Z,7.75
2023-06-10T12:22:14.763Z,6.30
2023-06-10T12:24:45.188Z,5.25
2023-06-10T12:27:12.452Z,6.57
2023-06-10T12:29:39.026Z,4.88
2023-06-10T12:32:06.468Z,5.57
2023-06-10T12:34:35.459Z,5.05
2023-06-10T12:37:04.161Z,9.38
2023-06-10T12:39:31.492Z,7.25
2023-06-10T12:41:58.454Z,5.75
2023-06-10T12:44:34.969Z,8.27
2023-06-10T12:47:01.873Z,4.93
2023-06-10T12:49:28.452Z,4.82
2023-06-10T12:51:55.117Z,6.32
2023-06-10T12:54:23.039Z,5.55
2023-06-10T12:56:49.661Z,7.65
2023-06-10T12:59:16.202Z,6.97
2023-06-10T13:01:42.848Z,6.40
2023-06-10T13:04:09.445Z,5.90
2023-06-10T13:06:36.011Z,8.27
2023-06-10T13:09:02.763Z,6.38
2023-06-10T13:11:30.681Z,6.45
2023-06-10T13:13:57.257Z,4.68
2023-06-10T13:16:23.867Z,6.75
2023-06-10T13:18:50.498Z,5.30
2023-06-10T13:21:17.015Z,4.65
2023-06-10T13:23:45.270Z,5.28
2023-06-10T13:26:11.855Z,6.53
2023-06-10T13:28:39.766Z,7.85
2023-06-10T13:31:06.367Z,5.35
2023-06-10T13:33:32.940Z,4.93
2023-06-10T13:35:59.502Z,6.57
2023-06-10T13:38:26.067Z,5.95
2023-06-10T13:40:52.601Z,7.30
2023-06-10T13:43:19.135Z,5.93
2023-06-10T13:45:47.008Z,7.43
2023-06-10T13:48:13.645Z,6.03
2023-06-10T13:50:40.230Z,5.20
2023-06-10T13:53:06.809Z,5.75
2023-06-10T13:55:33.368Z,8.45
2023-06-10T13:57:59.895Z,8.57
2023-06-10T14:00:26.418Z,7.90
2023-06-10T14:02:54.394Z,5.50
2023-06-10T14:05:20.991Z,5.28
2023-06-10T14:07:47.499Z,6.25
2023-06-10T14:10:14.012Z,5.60
2023-06-10T14:12:40.570Z,4.88
2023-06-10T14:15:08.573Z,4.63
2023-06-10T14:17:35.392Z,7.03
2023-06-10T14:20:03.656Z,8.57
2023-06-10T14:22:30.274Z,6.43
2023-06-10T14:24:56.846Z,5.25
2023-06-10T14:27:23.399Z,6.45
2023-06-10T14:29:49.959Z,5.90
2023-06-10T14:32:16.636Z,6.68
2023-06-10T14:34:43.260Z,6.38
2023-06-10T14:37:11.251Z,5.57
2023-06-10T14:39:37.781Z,6.03
2023-06-10T14:42:04.984Z,5.88
2023-06-10T14:44:31.515Z,4.90
2023-06-10T14:46:58.079Z,4.88
2023-06-10T14:49:24.582Z,5.30
2023-06-10T14:51:51.191Z,6.80
2023-06-10T14:54:19.074Z,7.40
2023-06-10T14:56:45.610Z,7.43
2023-06-10T14:59:12.216Z,6.07
2023-06-10T15:01:38.978Z,10.32
2023-06-10T15:04:05.605Z,7.15
2023-06-10T15:06:32.179Z,5.75
2023-06-10T15:08:58.738Z,5.45
2023-06-10T15:11:26.619Z,5.07
2023-06-10T15:13:53.176Z,7.53
2023-06-10T15:16:19.799Z,5.32
2023-06-10T15:18:46.346Z,6.15
2023-06-10T15:21:12.869Z,6.38
2023-06-10T15:23:39.426Z,6.72
2023-06-10T15:26:06.111Z,5.25
2023-06-10T15:28:33.966Z,5.70
2023-06-10T15:31:00.597Z,5.95
2023-06-10T15:33:27.166Z,7.65
2023-06-10T15:35:53.737Z,5.45
2023-06-10T15:38:20.358Z,6.47
2023-06-10T15:40:46.887Z,6.60
2023-06-10T15:43:13.492Z,6.88
2023-06-10T15:45:41.467Z,6.25
2023-06-10T15:48:08.145Z,5.60
2023-06-10T15:50:34.744Z,6.93
2023-06-10T15:53:01.257Z,5.20
2023-06-10T15:55:27.788Z,5.97
2023-06-10T15:57:54.317Z,4.95
2023-06-10T16:00:21.262Z,4.93
2023-06-10T16:02:49.271Z,6.43
2023-06-10T16:05:16.113Z,6.15
2023-06-10T16:07:43.035Z,5.75
2023-06-10T16:10:10.125Z,4.60
2023-06-10T16:12:36.682Z,5.50
2023-06-10T16:15:03.372Z,6.93
2023-06-10T16:17:30.143Z,5.72
2023-06-10T16:19:58.033Z,5.78
2023-06-10T16:22:24.643Z,5.22
2023-06-10T16:24:51.182Z,5.32
2023-06-10T16:27:17.767Z,6.35
2023-06-10T16:29:44.284Z,6.65
2023-06-10T16:32:10.861Z,4.78
2023-06-10T16:34:37.432Z,5.82
2023-06-10T16:37:05.358Z,5.00
2023-06-10T16:39:31.953Z,5.90
2023-06-10T16:41:58.535Z,8.75
2023-06-10T16:44:25.405Z,5.85
2023-06-10T16:46:52.021Z,4.72
2023-06-10T16:49:18.620Z,7.15
2023-06-10T16:51:45.211Z,5.15
2023-06-10T16:54:13.413Z,5.18
2023-06-10T16:56:39.970Z,5.18
2023-06-10T16:59:06.545Z,5.53
2023-06-10T17:01:33.172Z,5.32
2023-06-10T17:03:59.754Z,6.03
2023-06-10T17:06:26.285Z,4.85
2023-06-10T17:08:52.851Z,10.35
2023-06-10T17:11:20.684Z,8.00
2023-06-10T17:13:47.314Z,6.95
2023-06-10T17:16:13.958Z,4.65
2023-06-10T17:18:40.701Z,5.05
2023-06-10T17:21:07.384Z,9.75
2023-06-10T17:23:34.100Z,8.25
2023-06-10T17:26:00.681Z,4.55
2023-06-10T17:28:28.594Z,6.30
2023-06-10T17:30:55.402Z,4.75
2023-06-10T17:33:22.001Z,6.05
2023-06-10T17:35:48.645Z,7.93
2023-06-10T17:38:15.331Z,7.72
2023-06-10T17:40:42.127Z,6.53
2023-06-10T17:43:08.689Z,4.60
2023-06-10T17:45:36.596Z,5.50
2023-06-10T17:48:03.510Z,8.60
2023-06-10T17:50:30.208Z,9.02
2023-06-10T17:52:56.758Z,6.45
2023-06-10T17:55:23.394Z,6.20
2023-06-10T17:57:50.176Z,6.43
2023-06-10T18:00:17.383Z,5.93
2023-06-10T18:02:45.441Z,9.50
2023-06-10T18:05:12.463Z,4.10
2023-06-10T18:07:39.232Z,6.43
2023-06-10T18:10:06.823Z,7.65
2023-06-10T18:12:33.455Z,6.22
2023-06-10T18:15:00.050Z,5.53
2023-06-10T18:17:26.660Z,5.53
2023-06-10T18:19:54.495Z,6.63
2023-06-10T18:22:21.082Z,10.63
2023-06-10T18:24:47.695Z,5.25
2023-06-10T18:27:16.601Z,4.85
2023-06-10T18:29:43.696Z,6.07
2023-06-10T18:32:10.591Z,4.85
2023-06-10T18:34:37.493Z,6.60
2023-06-10T18:37:08.144Z,7.50
2023-06-10T18:39:35.946Z,6.78
2023-06-10T18:42:02.733Z,6.00
2023-06-10T18:44:29.353Z,5.05
2023-06-10T18:46:56.033Z,11.23
2023-06-10T18:49:22.571Z,7.95
2023-06-10T18:51:49.099Z,6.00
2023-06-10T18:54:17.091Z,6.13
2023-06-10T18:56:43.635Z,4.15
2023-06-10T18:59:10.166Z,5.20
2023-06-10T19:01:36.806Z,5.70
2023-06-10T19:04:03.616Z,6.38
2023-06-10T19:06:30.228Z,8.63
2023-06-10T19:08:56.771Z,5.72
2023-06-10T19:11:24.654Z,6.05
2023-06-10T19:13:51.206Z,7.05
2023-06-10T19:16:17.860Z,5.07
2023-06-10T19:18:44.430Z,6.78
2023-06-10T19:21:11.072Z,6.15
2023-06-10T19:23:37.687Z,6.05
2023-06-10T19:26:04.301Z,6.38
2023-06-10T19:28:32.286Z,5.13
2023-06-10T19:30:58.892Z,5.53
2023-06-10T19:33:25.398Z,5.93
2023-06-10T19:35:52.004Z,7.82
2023-06-10T19:38:19.046Z,9.05
2023-06-10T19:40:45.604Z,4.85
2023-06-10T19:43:12.134Z,5.20
2023-06-10T19:45:40.012Z,5.90
2023-06-10T19:48:08.591Z,6.55
2023-06-10T19:50:36.840Z,8.05
2023-06-10T19:53:03.386Z,5.35
2023-06-10T19:55:29.957Z,6.90
2023-06-10T19:57:56.529Z,7.18
2023-06-10T20:00:23.157Z,6.20
2023-06-10T20:02:51.091Z,6.05
2023-06-10T20:05:17.654Z,6.65
2023-06-10T20:07:44.371Z,5.78
2023-06-10T20:10:10.981Z,5.47
2023-06-10T20:12:37.521Z,6.97
2023-06-10T20:15:04.747Z,8.65
2023-06-10T20:17:31.312Z,6.90
2023-06-10T20:19:59.240Z,8.07
2023-06-10T20:22:25.771Z,6.57
2023-06-10T20:24:52.494Z,10.25
2023-06-10T20:27:19.272Z,6.22
2023-06-10T20:29:45.964Z,9.38
2023-06-10T20:32:12.689Z,8.07
2023-06-10T20:34:39.261Z,6.95
2023-06-10T20:37:07.256Z,7.20
2023-06-10T20:39:33.874Z,6.30
2023-06-10T20:42:00.454Z,5.28
2023-06-10T20:44:26.971Z,5.70
2023-06-10T20:46:53.534Z,8.77
2023-06-10T20:49:20.115Z,5.07
2023-06-10T20:51:46.659Z,7.72
2023-06-10T20:54:14.537Z,6.70
2023-06-10T20:56:41.085Z,6.38
2023-06-10T20:59:07.642Z,7.00
2023-06-10T21:01:34.440Z,7.10
2023-06-10T21:04:01.144Z,6.82
2023-06-10T21:06:27.739Z,13.27
2023-06-10T21:08:54.327Z,10.73
2023-06-10T21:11:22.246Z,6.55
2023-06-10T21:13:48.833Z,5.88
2023-06-10T21:16:15.455Z,6.20
2023-06-10T21:18:42.117Z,7.18
2023-06-10T21:21:08.905Z,6.30
2023-06-10T21:23:35.482Z,7.55
2023-06-10T21:26:02.116Z,9.35
2023-06-10T21:28:30.018Z,6.85
2023-06-10T21:30:56.597Z,9.13
2023-06-10T21:33:23.151Z,8.43
2023-06-10T21:35:49.797Z,6.40
2023-06-10T21:38:16.416Z,6.28
2023-06-10T21:40:42.935Z,7.07
2023-06-10T21:43:09.509Z,6.78
2023-06-10T21:45:37.398Z,7.10
2023-06-10T21:48:04.028Z,7.22
2023-06-10T21:50:30.580Z,5.57
2023-06-10T21:52:59.535Z,7.43
2023-06-10T21:55:27.751Z,7.85
2023-06-10T21:57:54.367Z,7.63
2023-06-10T22:00:20.970Z,8.48
2023-06-10T22:02:48.995Z,9.27
2023-06-10T22:05:15.625Z,7.25
2023-06-10T22:07:42.325Z,5.90
2023-06-10T22:10:09.389Z,7.35
2023-06-10T22:12:35.974Z,7.68
2023-06-10T22:15:02.547Z,6.53
2023-06-10T22:17:29.131Z,8.60
2023-06-10T22:19:57.240Z,6.30
2023-06-10T22:22:23.810Z,9.05
2023-06-10T22:24:55.305Z,7.57
2023-06-10T22:27:24.138Z,6.43
2023-06-10T22:29:51.124Z,12.48
2023-06-10T22:32:17.784Z,7.65
2023-06-10T22:34:44.383Z,6.47
2023-06-10T22:37:12.270Z,8.82
2023-06-10T22:39:38.848Z,9.98
2023-06-10T22:42:06.231Z,9.80
2023-06-10T22:44:32.769Z,7.53
2023-06-10T22:46:59.307Z,8.00
2023-06-10T22:49:25.831Z,6.85
2023-06-10T22:51:52.422Z,6.82
2023-06-10T22:54:20.356Z,10.18
2023-06-10T22:56:46.899Z,8.65
2023-06-10T22:59:13.476Z,7.75
2023-06-10T23:01:40.118Z,8.40
2023-06-10T23:04:06.738Z,10.65
2023-06-10T23:06:33.307Z,8.45
2023-06-10T23:08:59.924Z,9.40
2023-06-10T23:11:27.837Z,8.63
2023-06-10T23:13:54.365Z,8.30
2023-06-10T23:16:20.920Z,8.27
2023-06-10T23:18:47.475Z,10.27
2023-06-10T23:21:13.997Z,9.45
2023-06-10T23:23:40.520Z,10.75
2023-06-10T23:26:07.084Z,8.65
2023-06-10T23:28:35.013Z,6.95
2023-06-10T23:31:01.538Z,9.15
2023-06-10T23:33:28.291Z,7.70
2023-06-10T23:35:55.128Z,9.50
2023-06-10T23:38:21.668Z,9.50
2023-06-10T23:40:48.243Z,9.18
2023-06-10T23:43:14.854Z,8.27
2023-06-10T23:45:42.767Z,10.63
2023-06-10T23:48:09.576Z,8.70
2023-06-10T23:50:36.201Z,9.60
2023-06-10T23:53:03.109Z,9.65
2023-06-10T23:55:29.687Z,9.55
2023-06-10T23:57:57.377Z,9.63
